EKSB/SGD METAR and TAF weather

Enter ICAO airport designator
Station Type Date Time Source
EKSB METAR 2020/03/25 06:50 UTC NOAA

EKSB 250650Z AUTO 18008KT 150V220 9999NDV NCD 04/M08 Q1032


Station Type Date Time Source
EKSB Decoded METAR 2020/03/25 06:50 UTC NOAA

Soenderborg Lufthavn, Denmark (EKSB) 54-58N 009-47E 14M
Mar 25, 2020 - 02:50 AM EDT / 2020.03.25 0650 UTC
Wind: from the S (180 degrees) at 9 MPH (8 KT) (direction variable):0
Temperature: 39 F (4 C)
Dew Point: 17 F (-8 C)
Relative Humidity: 41%
Pressure (altimeter): 30.47 in. Hg (1032 hPa)
ob: EKSB 250650Z AUTO 18008KT 150V220 9999NDV NCD 04/M08 Q1032
cycle: 7

Station Type Date Time Source
EKSB TAF 2016/01/27 09:03 UTC NOAA

TAF TAF EKSB 270856Z 2709/2721 23022KT 5000 -RA BR BKN008
TEMPO 2709/2721 24025G40KT 2000 RADZ BKN004

Example: see airport list